Time;durP1;ratioP1;P1;durP2;ratioP2;P2;SDS_P1;SDS_P2;PMS_P1;PMS_P2;Temp;Humidity;BMP_temperature;BMP_pressure;BME280_temperature;BME280_humidity;BME280_pressure;Samples;Min_cycle;Max_cycle;Signal;HPM_P1;HPM_P2
2022/03/19 00:01:03;;;;;;;91.50;44.10;;;6.70;99.90;;;;;;1882367;76;21053;-72
2022/03/19 00:03:30;;;;;;;66.55;42.10;;;6.70;99.90;;;;;;1880822;75;21049;-71
2022/03/19 00:05:57;;;;;;;65.45;42.30;;;6.60;99.90;;;;;;1880858;76;21041;-72
2022/03/19 00:08:25;;;;;;;63.28;41.73;;;6.60;99.90;;;;;;1880950;76;21022;-70
2022/03/19 00:10:52;;;;;;;65.90;41.08;;;6.60;99.90;;;;;;1880848;76;21066;-71
2022/03/19 00:13:20;;;;;;;69.07;41.88;;;6.60;99.90;;;;;;1880827;75;21041;-73
2022/03/19 00:15:48;;;;;;;62.05;41.60;;;6.60;99.90;;;;;;1880780;76;21193;-74
2022/03/19 00:18:16;;;;;;;62.00;41.00;;;6.60;99.90;;;;;;1880872;76;21047;-75
2022/03/19 00:20:43;;;;;;;72.47;40.83;;;6.50;99.90;;;;;;1880917;76;21073;-74
2022/03/19 00:23:12;;;;;;;66.85;42.73;;;6.50;99.90;;;;;;1880792;76;21049;-73
2022/03/19 00:25:40;;;;;;;65.50;41.00;;;6.40;99.90;;;;;;1880996;76;21074;-73
2022/03/19 00:28:07;;;;;;;64.58;41.95;;;6.30;99.90;;;;;;1880880;76;21061;-72
2022/03/19 00:30:35;;;;;;;61.77;40.78;;;6.30;99.90;;;;;;1880839;76;21082;-73
2022/03/19 00:33:02;;;;;;;66.65;41.13;;;6.30;99.90;;;;;;1880616;75;21122;-72
2022/03/19 00:35:29;;;;;;;59.95;42.38;;;6.30;99.90;;;;;;1880658;76;21042;-73
2022/03/19 00:41:19;;;;;;;57.25;40.33;;;6.20;99.90;;;;;;1880543;76;21120;-73
2022/03/19 00:43:47;;;;;;;64.42;41.10;;;6.10;99.90;;;;;;1880678;75;21139;-72
2022/03/19 00:46:15;;;;;;;63.45;40.70;;;6.10;99.90;;;;;;1859136;76;21136;-73
2022/03/19 00:48:43;;;;;;;62.33;40.60;;;6.10;99.90;;;;;;1880550;76;21116;-73
2022/03/19 00:51:16;;;;;;;66.35;40.85;;;6.10;99.90;;;;;;1880526;76;21139;-72
2022/03/19 00:53:44;;;;;;;60.43;40.60;;;6.10;99.90;;;;;;1880670;75;21127;-72
2022/03/19 00:56:11;;;;;;;60.33;38.67;;;6.10;99.90;;;;;;1880834;76;21119;-71
2022/03/19 00:58:38;;;;;;;64.40;39.88;;;6.00;99.90;;;;;;1881313;76;21055;-71
2022/03/19 01:01:06;;;;;;;56.70;38.85;;;6.00;99.90;;;;;;1881051;76;21046;-71
2022/03/19 01:03:33;;;;;;;61.80;40.60;;;5.90;99.90;;;;;;1880708;76;21062;-71
2022/03/19 01:06:00;;;;;;;57.60;39.30;;;6.00;99.90;;;;;;1881141;76;21160;-72
2022/03/19 01:08:27;;;;;;;60.58;38.83;;;6.00;99.90;;;;;;1881015;75;21077;-72
2022/03/19 01:10:55;;;;;;;66.70;39.65;;;6.00;99.90;;;;;;1882606;76;21061;-72
2022/03/19 01:13:22;;;;;;;65.92;39.05;;;5.90;99.90;;;;;;1886273;76;21057;-72
2022/03/19 01:15:49;;;;;;;57.62;39.38;;;6.00;99.90;;;;;;1883740;76;21027;-72
2022/03/19 01:18:17;;;;;;;71.40;40.10;;;6.00;99.90;;;;;;1884200;76;21190;-73
2022/03/19 01:20:44;;;;;;;56.20;37.30;;;6.00;99.90;;;;;;1881023;76;21120;-74
2022/03/19 01:23:12;;;;;;;55.20;38.80;;;5.90;99.90;;;;;;1880843;76;21502;-73
2022/03/19 01:25:40;;;;;;;58.78;38.55;;;5.90;99.90;;;;;;1880964;76;21050;-71
2022/03/19 01:28:08;;;;;;;55.78;37.48;;;6.00;99.90;;;;;;1880851;76;21034;-72
2022/03/19 01:30:35;;;;;;;50.85;37.33;;;6.00;99.90;;;;;;1880895;76;21065;-72
2022/03/19 01:33:05;;;;;;;57.65;37.67;;;5.90;99.90;;;;;;1880827;76;21105;-72
2022/03/19 01:35:33;;;;;;;54.58;37.15;;;5.90;99.90;;;;;;1880960;76;21097;-73
2022/03/19 01:38:00;;;;;;;59.73;38.25;;;5.90;99.90;;;;;;1880855;76;21046;-72
2022/03/19 01:40:27;;;;;;;55.23;38.70;;;5.80;99.90;;;;;;1880850;76;21053;-72
2022/03/19 01:42:57;;;;;;;57.30;37.23;;;5.70;99.90;;;;;;1880861;76;21042;-71
2022/03/19 01:45:24;;;;;;;61.08;36.70;;;5.70;99.90;;;;;;1880844;75;21106;-73
2022/03/19 01:47:54;;;;;;;59.27;37.65;;;5.60;99.90;;;;;;1880756;76;21536;-73
2022/03/19 01:50:23;;;;;;;56.50;37.85;;;5.60;99.90;;;;;;1859605;76;21062;-74
2022/03/19 01:52:50;;;;;;;57.67;36.13;;;5.60;99.90;;;;;;1881211;75;21048;-74
2022/03/19 01:55:20;;;;;;;52.08;36.60;;;5.60;99.90;;;;;;1880882;76;21041;-72
2022/03/19 01:57:47;;;;;;;67.50;39.00;;;5.60;99.90;;;;;;1880538;76;21057;-73
2022/03/19 02:00:34;;;;;;;67.10;38.67;;;5.60;99.90;;;;;;1881611;75;21045;-74
2022/03/19 02:03:01;;;;;;;52.45;35.65;;;5.60;99.90;;;;;;1899921;75;21033;-73
2022/03/19 02:05:30;;;;;;;57.20;38.02;;;5.60;99.90;;;;;;1899844;75;21136;-73
2022/03/19 02:07:57;;;;;;;58.70;37.25;;;5.50;99.90;;;;;;1900271;75;21107;-73
2022/03/19 02:10:26;;;;;;;57.78;36.63;;;5.40;99.90;;;;;;1902383;75;21042;-72
2022/03/19 02:12:55;;;;;;;58.02;39.05;;;5.40;99.90;;;;;;1902962;75;21087;-73
2022/03/19 02:15:22;;;;;;;65.50;38.35;;;5.40;99.90;;;;;;1902966;75;21073;-71
2022/03/19 02:17:49;;;;;;;58.50;37.30;;;5.50;99.90;;;;;;1902796;75;21029;-73
2022/03/19 02:20:18;;;;;;;56.45;35.90;;;5.40;99.90;;;;;;1902683;75;21148;-72
2022/03/19 02:25:34;;;;;;;52.43;34.63;;;5.40;99.90;;;;;;1900150;75;21038;-71
2022/03/19 02:28:01;;;;;;;55.45;35.98;;;5.30;99.90;;;;;;1905770;74;21103;-73
2022/03/19 02:30:28;;;;;;;60.25;36.63;;;5.30;99.90;;;;;;1899367;74;21104;-72
2022/03/19 02:32:56;;;;;;;56.58;36.35;;;5.30;99.90;;;;;;1896200;75;21045;-73
2022/03/19 02:35:23;;;;;;;53.23;35.68;;;5.30;99.90;;;;;;1900018;75;21069;-73
2022/03/19 02:37:51;;;;;;;49.93;33.80;;;5.30;99.90;;;;;;1899994;75;21405;-73
2022/03/19 02:40:19;;;;;;;51.65;34.73;;;5.30;99.90;;;;;;1905656;74;21155;-72
2022/03/19 02:42:48;;;;;;;55.98;35.85;;;5.20;99.90;;;;;;1899701;75;21011;-72
2022/03/19 02:45:16;;;;;;;58.02;35.40;;;5.10;99.90;;;;;;1899725;75;21197;-73
2022/03/19 02:47:58;;;;;;;49.25;34.63;;;5.00;99.90;;;;;;1899914;75;21113;-72
2022/03/19 02:50:27;;;;;;;53.48;34.90;;;5.10;99.90;;;;;;1900016;75;21045;-73
2022/03/19 02:52:55;;;;;;;57.08;36.10;;;5.10;99.90;;;;;;1900215;75;21391;-72
2022/03/19 02:55:23;;;;;;;49.15;33.33;;;5.10;99.90;;;;;;1899886;75;21041;-72
2022/03/19 02:57:52;;;;;;;54.42;34.70;;;5.00;99.90;;;;;;1899681;75;21010;-73
2022/03/19 03:00:19;;;;;;;49.93;33.88;;;5.00;99.90;;;;;;1899813;75;21053;-73
2022/03/19 03:02:47;;;;;;;55.67;37.48;;;4.90;99.90;;;;;;1899901;75;21297;-72
2022/03/19 03:05:14;;;;;;;54.77;35.70;;;5.00;99.90;;;;;;1899768;75;21524;-73
2022/03/19 03:07:42;;;;;;;53.02;35.50;;;5.10;99.90;;;;;;1899867;75;21111;-74
2022/03/19 03:10:09;;;;;;;49.03;33.45;;;5.10;99.90;;;;;;1899851;75;21030;-72
2022/03/19 03:12:36;;;;;;;61.75;35.20;;;5.00;99.90;;;;;;1899727;75;21030;-72
2022/03/19 03:15:05;;;;;;;51.10;33.50;;;4.90;99.90;;;;;;1899719;75;21018;-72
2022/03/19 03:17:36;;;;;;;59.42;35.03;;;4.90;99.90;;;;;;1899544;75;21034;-72
2022/03/19 03:20:03;;;;;;;47.88;34.35;;;4.80;99.90;;;;;;1899751;75;21422;-72
2022/03/19 03:22:31;;;;;;;54.73;34.15;;;4.70;99.90;;;;;;1877645;75;21042;-73
2022/03/19 03:24:59;;;;;;;50.08;33.65;;;4.70;99.90;;;;;;1899644;75;21037;-73
2022/03/19 03:27:26;;;;;;;54.25;33.65;;;4.50;99.90;;;;;;1899483;75;21124;-73
2022/03/19 03:29:54;;;;;;;56.85;33.55;;;4.60;99.90;;;;;;1899530;75;21468;-73
2022/03/19 03:32:21;;;;;;;53.48;34.63;;;4.60;99.90;;;;;;1899569;75;21111;-74
2022/03/19 03:34:48;;;;;;;50.98;33.90;;;4.50;99.90;;;;;;1899512;75;21103;-74
2022/03/19 03:37:18;;;;;;;50.38;34.90;;;4.50;99.90;;;;;;1899622;75;21111;-73
2022/03/19 03:39:45;;;;;;;53.17;35.25;;;4.50;99.90;;;;;;1899259;75;21090;-73
2022/03/19 03:42:12;;;;;;;59.00;33.73;;;4.40;99.90;;;;;;1899421;75;21089;-72
2022/03/19 03:44:42;;;;;;;58.02;36.28;;;4.40;99.90;;;;;;1899570;75;21120;-72
2022/03/19 03:47:09;;;;;;;57.33;35.08;;;4.40;99.90;;;;;;1899451;75;21566;-71
2022/03/19 03:49:36;;;;;;;54.18;34.73;;;4.40;99.90;;;;;;1899489;75;21465;-72
2022/03/19 03:52:03;;;;;;;52.17;34.45;;;4.40;99.90;;;;;;1899661;75;21045;-74
2022/03/19 03:54:32;;;;;;;46.30;33.95;;;4.40;99.90;;;;;;1899438;75;21049;-73
2022/03/19 03:57:00;;;;;;;54.25;34.50;;;4.30;99.90;;;;;;1899394;75;21092;-73
2022/03/19 03:59:30;;;;;;;51.98;34.03;;;4.40;99.90;;;;;;1899637;75;21446;-74
2022/03/19 04:01:57;;;;;;;63.60;35.20;;;4.40;99.90;;;;;;1899449;75;21057;-73
2022/03/19 04:04:25;;;;;;;52.10;33.55;;;4.30;99.90;;;;;;1899576;75;21058;-74
2022/03/19 04:06:52;;;;;;;48.00;33.50;;;4.20;99.90;;;;;;1899626;75;21034;-73
2022/03/19 04:09:19;;;;;;;55.70;33.75;;;4.20;99.90;;;;;;1899375;75;21119;-74
2022/03/19 04:11:47;;;;;;;53.42;32.10;;;4.10;99.90;;;;;;1899384;75;21107;-73
2022/03/19 04:14:14;;;;;;;59.42;35.50;;;4.20;99.90;;;;;;1899493;75;21123;-73
2022/03/19 04:16:41;;;;;;;56.85;34.18;;;4.10;99.90;;;;;;1899626;75;21196;-74
2022/03/19 04:19:10;;;;;;;51.83;33.70;;;4.20;99.90;;;;;;1899467;75;21115;-74
2022/03/19 04:21:38;;;;;;;61.65;34.30;;;4.10;99.90;;;;;;1899461;75;21151;-73
2022/03/19 04:24:06;;;;;;;53.90;33.98;;;4.00;99.90;;;;;;1899521;75;21498;-73
2022/03/19 04:26:34;;;;;;;51.70;34.92;;;4.00;99.90;;;;;;1899597;75;21429;-73
2022/03/19 04:29:01;;;;;;;63.70;35.50;;;4.00;99.90;;;;;;1899415;75;21089;-74
2022/03/19 04:31:28;;;;;;;56.63;35.05;;;3.90;99.90;;;;;;1899611;75;21499;-72
2022/03/19 04:33:56;;;;;;;58.25;33.30;;;3.90;99.90;;;;;;1899632;75;21025;-73
2022/03/19 04:39:02;;;;;;;59.65;32.88;;;4.00;99.90;;;;;;1853420;75;21049;-74
2022/03/19 04:41:30;;;;;;;49.33;33.42;;;3.90;99.90;;;;;;1897890;74;21150;-73
2022/03/19 04:43:57;;;;;;;51.45;32.98;;;3.90;99.90;;;;;;1887233;74;21090;-73
2022/03/19 04:46:24;;;;;;;59.98;33.35;;;3.80;99.90;;;;;;1860592;77;21032;-74
2022/03/19 04:48:53;;;;;;;57.62;34.58;;;3.90;99.90;;;;;;1859263;76;21072;-75
2022/03/19 04:51:22;;;;;;;56.68;34.30;;;3.90;99.90;;;;;;1900464;74;21151;-74
2022/03/19 04:53:54;;;;;;;54.70;33.58;;;3.90;99.90;;;;;;1899514;75;21033;-73
2022/03/19 04:56:19;;;;;;;52.90;33.75;;;3.80;99.90;;;;;;1899456;74;21167;-75
2022/03/19 04:58:46;;;;;;;48.73;32.88;;;3.80;99.90;;;;;;1936648;73;21010;-74
2022/03/19 05:01:14;;;;;;;56.37;34.23;;;3.80;99.90;;;;;;1934138;73;21066;-74
2022/03/19 05:03:41;;;;;;;51.85;32.70;;;3.90;99.90;;;;;;1936640;73;21132;-74
2022/03/19 05:06:08;;;;;;;48.30;31.75;;;3.90;99.90;;;;;;1874106;76;21121;-74
2022/03/19 05:08:36;;;;;;;51.90;31.55;;;3.80;99.90;;;;;;1864956;77;21042;-75
2022/03/19 05:11:17;;;;;;;52.98;32.05;;;3.80;99.90;;;;;;1866867;76;21137;-74
2022/03/19 05:13:45;;;;;;;46.80;32.60;;;3.80;99.90;;;;;;1878840;75;21155;-73
2022/03/19 05:16:12;;;;;;;54.03;33.02;;;3.70;99.90;;;;;;1868565;76;21156;-73
2022/03/19 05:18:40;;;;;;;46.42;32.28;;;3.70;99.90;;;;;;1866710;76;21164;-74
2022/03/19 05:21:07;;;;;;;49.23;31.80;;;3.80;99.90;;;;;;1871377;76;21473;-74
2022/03/19 05:23:35;;;;;;;47.53;31.37;;;3.70;99.90;;;;;;1864696;76;21055;-75
2022/03/19 05:26:02;;;;;;;50.73;32.93;;;3.70;99.90;;;;;;1865955;76;21070;-72
2022/03/19 05:28:29;;;;;;;50.17;33.02;;;3.90;99.90;;;;;;1868900;76;21187;-73
2022/03/19 05:31:01;;;;;;;54.30;33.95;;;3.80;99.90;;;;;;1889206;76;21136;-74
2022/03/19 05:36:11;;;;;;;48.10;31.85;;;3.80;99.90;;;;;;1883781;76;21083;-73
2022/03/19 05:38:39;;;;;;;53.33;33.20;;;3.80;99.90;;;;;;1866809;76;21090;-71
2022/03/19 05:41:06;;;;;;;60.43;32.70;;;3.90;99.90;;;;;;1886511;75;21221;-71
2022/03/19 05:43:34;;;;;;;46.03;31.67;;;3.80;99.90;;;;;;1884607;75;21074;-72
2022/03/19 05:46:01;;;;;;;49.90;31.50;;;3.80;99.90;;;;;;1864891;77;21463;-73
2022/03/19 05:48:28;;;;;;;51.40;31.42;;;3.90;99.90;;;;;;1864920;77;21086;-73
2022/03/19 05:50:56;;;;;;;50.67;32.73;;;3.90;99.90;;;;;;1863546;76;21016;-72
2022/03/19 05:53:24;;;;;;;53.05;32.83;;;4.00;99.90;;;;;;1870108;76;21459;-73
2022/03/19 05:55:51;;;;;;;57.17;33.02;;;4.00;99.90;;;;;;1876861;75;21071;-73
2022/03/19 05:58:19;;;;;;;50.15;31.65;;;4.00;99.90;;;;;;1866644;76;21148;-72
2022/03/19 06:00:47;;;;;;;49.30;31.65;;;4.00;99.90;;;;;;1882602;75;21139;-72
2022/03/19 06:03:14;;;;;;;47.00;30.50;;;4.10;99.90;;;;;;1888672;75;21155;-73
2022/03/19 06:05:42;;;;;;;53.28;30.97;;;4.10;99.90;;;;;;1877282;76;21156;-71
2022/03/19 06:08:09;;;;;;;49.42;31.52;;;4.10;99.90;;;;;;1867128;76;21109;-71
2022/03/19 06:10:36;;;;;;;47.38;30.40;;;4.10;99.90;;;;;;1866390;76;21129;-72
2022/03/19 06:13:05;;;;;;;50.83;30.77;;;4.00;99.90;;;;;;1865126;77;21117;-72
2022/03/19 06:15:32;;;;;;;52.40;30.80;;;4.10;99.90;;;;;;1865133;77;21174;-72
2022/03/19 06:18:00;;;;;;;67.32;30.80;;;4.00;99.90;;;;;;1875077;76;21102;-71
2022/03/19 06:20:27;;;;;;;46.20;30.30;;;4.10;99.90;;;;;;1890220;75;21167;-72
2022/03/19 06:22:54;;;;;;;49.27;32.20;;;4.00;99.90;;;;;;1901108;74;21144;-71
2022/03/19 06:25:22;;;;;;;47.30;30.68;;;4.00;99.90;;;;;;1899438;75;21038;-72
2022/03/19 06:27:52;;;;;;;45.10;29.65;;;4.10;99.90;;;;;;1897777;74;21065;-73
2022/03/19 06:30:19;;;;;;;46.80;31.05;;;4.00;99.90;;;;;;1870061;75;21090;-72
2022/03/19 06:32:48;;;;;;;47.10;30.25;;;4.10;99.90;;;;;;1870235;74;21050;-73
2022/03/19 06:37:19;;;;;;;47.05;30.48;;;4.10;99.90;;;;;;1866683;76;21070;-73
2022/03/19 06:37:47;;;;;;;50.05;30.57;;;4.10;99.90;;;;;;1895163;75;21120;-73
2022/03/19 06:40:14;;;;;;;44.95;30.35;;;4.20;99.90;;;;;;1937177;73;21038;-72
2022/03/19 06:42:41;;;;;;;54.67;31.23;;;4.30;99.90;;;;;;1939106;74;21043;-72
2022/03/19 06:45:09;;;;;;;47.67;30.10;;;4.30;99.90;;;;;;1935200;73;21570;-72
2022/03/19 06:47:36;;;;;;;47.08;30.43;;;4.50;99.90;;;;;;1869978;76;21222;-73
2022/03/19 06:50:05;;;;;;;45.83;29.90;;;4.50;99.90;;;;;;1867192;76;21160;-73
2022/03/19 06:52:34;;;;;;;49.85;29.87;;;4.60;99.90;;;;;;1867098;76;21451;-74
2022/03/19 06:55:02;;;;;;;59.30;30.85;;;4.60;99.90;;;;;;1872289;76;21167;-73
2022/03/19 06:57:30;;;;;;;44.73;29.27;;;4.80;99.90;;;;;;1866167;76;21058;-73
2022/03/19 06:59:57;;;;;;;44.25;29.00;;;4.80;99.90;;;;;;1865141;77;21191;-72
2022/03/19 07:02:25;;;;;;;45.85;29.92;;;5.10;99.90;;;;;;1867410;76;21075;-73
2022/03/19 07:04:52;;;;;;;47.75;30.27;;;5.40;99.90;;;;;;1866673;76;21085;-72
2022/03/19 07:07:20;;;;;;;44.30;27.90;;;5.50;99.90;;;;;;1864965;77;21512;-72
2022/03/19 07:09:49;;;;;;;42.98;28.85;;;5.70;99.90;;;;;;1867040;76;21082;-72
2022/03/19 07:12:17;;;;;;;46.18;29.12;;;5.70;99.90;;;;;;1865296;77;21149;-72
2022/03/19 07:14:44;;;;;;;44.83;29.55;;;5.90;99.90;;;;;;1878260;75;21085;-73
2022/03/19 07:17:11;;;;;;;49.18;28.87;;;5.90;99.90;;;;;;1892451;76;21512;-73
2022/03/19 07:19:41;;;;;;;46.53;28.52;;;6.10;99.90;;;;;;1879507;75;21215;-73
2022/03/19 07:22:08;;;;;;;46.95;28.55;;;6.20;99.90;;;;;;1892507;75;21155;-74
2022/03/19 07:24:37;;;;;;;41.60;28.02;;;6.30;99.90;;;;;;1892759;75;21167;-72
2022/03/19 07:27:06;;;;;;;48.25;28.42;;;6.50;99.90;;;;;;1877982;75;21090;-73
2022/03/19 07:29:34;;;;;;;44.83;27.35;;;6.50;99.90;;;;;;1867075;76;21091;-71
2022/03/19 07:32:02;;;;;;;42.35;27.90;;;6.60;99.90;;;;;;1934289;73;21047;-71
2022/03/19 07:34:29;;;;;;;41.55;26.68;;;6.60;99.90;;;;;;1935663;73;21053;-70
2022/03/19 07:36:57;;;;;;;45.33;27.73;;;6.70;99.90;;;;;;1881508;76;21156;-71
2022/03/19 07:39:24;;;;;;;43.85;25.97;;;6.80;99.90;;;;;;1875568;76;21108;-73
2022/03/19 07:41:55;;;;;;;39.78;25.62;;;6.90;99.90;;;;;;1865223;76;21075;-73
2022/03/19 07:44:20;;;;;;;41.90;24.25;;;7.00;99.90;;;;;;1901925;75;21184;-74
2022/03/19 07:46:48;;;;;;;40.35;23.67;;;7.10;99.90;;;;;;1932670;73;21431;-73
2022/03/19 07:49:17;;;;;;;37.70;24.55;;;7.20;99.90;;;;;;1931753;73;21067;-72
2022/03/19 07:51:44;;;;;;;35.08;22.52;;;7.20;99.90;;;;;;1872906;76;21144;-74
2022/03/19 07:54:19;;;;;;;34.23;24.05;;;7.30;99.90;;;;;;1899429;75;21029;-74
2022/03/19 07:56:43;;;;;;;38.05;24.75;;;7.30;99.90;;;;;;1905834;74;21104;-74
2022/03/19 07:59:11;;;;;;;40.03;23.87;;;7.40;99.90;;;;;;1934326;73;21144;-74
2022/03/19 08:01:38;;;;;;;51.23;25.20;;;7.60;99.90;;;;;;1930040;73;21079;-74
2022/03/19 08:04:05;;;;;;;37.73;23.83;;;7.60;99.90;;;;;;1936683;74;21220;-74
2022/03/19 08:06:33;;;;;;;44.00;22.35;;;7.70;99.90;;;;;;1932528;73;21054;-75
2022/03/19 08:09:01;;;;;;;35.03;22.60;;;7.90;99.90;;;;;;1933409;73;21091;-74
2022/03/19 08:11:28;;;;;;;35.58;21.42;;;8.10;99.90;;;;;;1902277;74;21046;-75
2022/03/19 08:13:56;;;;;;;35.95;22.05;;;8.20;99.90;;;;;;1852153;77;21049;-74
2022/03/19 08:16:24;;;;;;;37.35;22.07;;;8.20;99.90;;;;;;1864809;76;21086;-74
2022/03/19 08:18:53;;;;;;;39.63;21.37;;;8.30;99.90;;;;;;1847003;76;21415;-74
2022/03/19 08:21:20;;;;;;;37.40;21.80;;;8.40;99.90;;;;;;1901858;74;21113;-74
2022/03/19 08:23:47;;;;;;;29.87;21.37;;;8.50;99.90;;;;;;1935915;74;21011;-75
2022/03/19 08:26:15;;;;;;;33.10;21.02;;;8.70;99.90;;;;;;1932522;73;21074;-75
2022/03/19 08:28:42;;;;;;;33.20;20.82;;;8.80;99.90;;;;;;1868801;76;21070;-75
2022/03/19 08:31:10;;;;;;;33.33;20.70;;;8.90;99.90;;;;;;1934327;73;21127;-76
2022/03/19 08:33:37;;;;;;;32.13;20.77;;;8.70;99.90;;;;;;1866395;76;21132;-74
2022/03/19 08:36:04;;;;;;;30.17;19.87;;;9.00;99.90;;;;;;1898831;75;21121;-74
2022/03/19 08:41:17;;;;;;;29.45;19.57;;;9.00;99.90;;;;;;1866695;76;21090;-75
2022/03/19 08:43:44;;;;;;;31.20;19.25;;;8.90;99.90;;;;;;1869298;75;21224;-76
2022/03/19 08:46:12;;;;;;;35.00;19.73;;;9.20;99.90;;;;;;1866900;76;21082;-76
2022/03/19 08:48:39;;;;;;;28.27;18.30;;;9.40;99.90;;;;;;1865075;77;21618;-75
2022/03/19 08:53:52;;;;;;;29.37;19.15;;;9.50;99.90;;;;;;1868480;76;21083;-78
2022/03/19 08:56:20;;;;;;;30.40;18.23;;;9.80;99.90;;;;;;1876981;75;21132;-76
2022/03/19 08:58:48;;;;;;;31.17;18.87;;;9.70;99.90;;;;;;1871537;76;21086;-78
2022/03/19 09:01:15;;;;;;;28.47;17.85;;;9.80;99.90;;;;;;1877691;76;21082;-77
2022/03/19 09:03:43;;;;;;;33.80;19.00;;;9.90;99.90;;;;;;1872446;76;21078;-78
2022/03/19 09:06:14;;;;;;;27.52;17.90;;;10.00;99.90;;;;;;1871421;76;21152;-76
2022/03/19 09:08:40;;;;;;;36.85;18.30;;;9.90;99.90;;;;;;1870192;76;21164;-75
2022/03/19 09:11:07;;;;;;;30.55;19.15;;;9.90;99.90;;;;;;1885723;76;21160;-77
2022/03/19 09:13:36;;;;;;;35.63;20.37;;;9.90;99.90;;;;;;1894849;75;21159;-76
2022/03/19 09:16:04;;;;;;;39.23;20.35;;;10.40;99.90;;;;;;1892937;75;21078;-77
2022/03/19 09:18:32;;;;;;;33.85;20.10;;;10.60;99.90;;;;;;1878218;76;21075;-77
2022/03/19 09:20:59;;;;;;;30.90;18.70;;;10.40;99.90;;;;;;1889930;76;21446;-78
2022/03/19 09:23:26;;;;;;;34.10;19.65;;;10.70;99.90;;;;;;1886655;75;21147;-77
2022/03/19 09:25:54;;;;;;;27.58;19.05;;;10.50;99.90;;;;;;1866999;76;21576;-77
2022/03/19 09:28:21;;;;;;;34.05;19.82;;;10.70;99.90;;;;;;1869020;76;21466;-80
2022/03/19 09:30:49;;;;;;;28.23;18.92;;;11.10;99.90;;;;;;1876978;75;21090;-76
2022/03/19 09:33:16;;;;;;;30.35;19.35;;;11.20;99.90;;;;;;1871171;76;21231;-76
2022/03/19 09:35:45;;;;;;;35.13;20.97;;;11.50;99.90;;;;;;1869193;76;21147;-76
2022/03/19 09:38:14;;;;;;;31.52;19.75;;;11.70;99.90;;;;;;1868943;76;21094;-76
2022/03/19 09:40:41;;;;;;;28.65;20.75;;;11.90;99.90;;;;;;1865083;77;21133;-73
2022/03/19 09:43:09;;;;;;;38.50;21.50;;;12.20;99.90;;;;;;1873983;75;21073;-76
2022/03/19 09:45:38;;;;;;;32.70;20.85;;;11.50;99.90;;;;;;1878360;75;21098;-76
2022/03/19 09:48:05;;;;;;;31.42;20.45;;;11.90;99.90;;;;;;1866558;76;21090;-77
2022/03/19 09:50:35;;;;;;;30.12;20.15;;;12.20;99.90;;;;;;1868531;76;21075;-76
2022/03/19 09:53:04;;;;;;;35.13;20.95;;;12.20;99.90;;;;;;1865465;76;21059;-77
2022/03/19 09:55:31;;;;;;;32.80;21.15;;;11.80;99.90;;;;;;1930136;73;21137;-75
2022/03/19 09:58:00;;;;;;;33.23;20.52;;;11.60;99.90;;;;;;1916060;73;21447;-76
2022/03/19 10:00:27;;;;;;;29.70;20.23;;;11.90;99.90;;;;;;1934107;73;21066;-75
2022/03/19 10:03:01;;;;;;;34.27;20.08;;;11.90;99.90;;;;;;1936937;73;21446;-74
2022/03/19 10:08:43;;;;;;;29.50;20.45;;;11.80;99.90;;;;;;1932740;73;21141;-80
2022/03/19 10:11:15;;;;;;;38.83;20.27;;;12.00;99.90;;;;;;1869289;76;21061;-79
2022/03/19 10:13:48;;;;;;;35.10;20.35;;;12.10;99.90;;;;;;1880902;76;21115;-81
2022/03/19 10:16:28;;;;;;;34.67;19.87;;;12.40;99.90;;;;;;1873012;76;21144;-79
2022/03/19 10:18:59;;;;;;;;;;;12.60;99.90;;;;;;1868196;77;21074;-78
2022/03/19 10:21:28;;;;;;;29.20;19.48;;;13.20;99.90;;;;;;1881097;76;20146;-74
2022/03/19 10:23:59;;;;;;;30.30;20.55;;;12.70;99.90;;;;;;1897870;74;21599;-75
2022/03/19 10:26:29;;;;;;;33.15;20.97;;;12.30;99.90;;;;;;1899620;74;21034;-76
2022/03/19 10:29:04;;;;;;;31.33;20.20;;;12.30;99.90;;;;;;1884421;74;21140;-75
2022/03/19 10:31:41;;;;;;;39.27;21.62;;;12.30;99.90;;;;;;1869069;75;21082;-82
2022/03/19 10:34:08;;;;;;;32.45;21.57;;;12.80;99.90;;;;;;1867090;77;21109;-79
2022/03/19 10:36:40;;;;;;;33.70;22.67;;;12.40;99.90;;;;;;1888418;75;21099;-80
2022/03/19 10:39:12;;;;;;;35.70;22.22;;;12.40;99.90;;;;;;1900885;74;21046;-80
2022/03/19 10:41:41;;;;;;;34.13;22.62;;;12.70;99.90;;;;;;1856681;76;21077;-80
2022/03/19 10:44:16;;;;;;;37.33;21.85;;;13.20;99.90;;;;;;1921189;75;21490;-79
2022/03/19 10:46:49;;;;;;;31.30;21.40;;;12.90;99.90;;;;;;1944850;73;21139;-79
2022/03/19 10:49:18;;;;;;;38.17;21.68;;;13.10;99.90;;;;;;1932181;73;21131;-79
2022/03/19 10:51:51;;;;;;;36.25;22.30;;;13.00;99.90;;;;;;1932191;73;21057;-83
2022/03/19 10:54:20;;;;;;;27.65;21.42;;;13.10;99.90;;;;;;1866349;76;21089;-79
2022/03/19 10:56:50;;;;;;;32.93;21.95;;;13.20;99.90;;;;;;1905883;74;21068;-79
2022/03/19 10:59:17;;;;;;;29.92;20.35;;;13.20;99.90;;;;;;1934268;73;21176;-78
2022/03/19 11:01:48;;;;;;;36.88;20.62;;;13.50;99.90;;;;;;1871061;76;21139;-78
2022/03/19 11:04:17;;;;;;;33.65;18.60;;;13.50;99.90;;;;;;1838209;76;21114;-78
2022/03/19 11:06:47;;;;;;;41.40;18.10;;;14.00;99.90;;;;;;1867552;74;21078;-76
2022/03/19 11:09:15;;;;;;;22.90;16.77;;;13.40;99.90;;;;;;1869150;76;21087;-77
2022/03/19 11:11:47;;;;;;;25.57;15.80;;;13.30;99.90;;;;;;1939552;73;21131;-77
2022/03/19 11:14:23;;;;;;;25.25;15.23;;;13.60;99.90;;;;;;1939418;73;21028;-78
2022/03/19 11:17:23;;;;;;;25.57;16.67;;;13.80;98.20;;;;;;1927515;73;21075;-78
2022/03/19 11:19:18;;;;;;;22.32;15.32;;;13.40;99.10;;;;;;1901716;74;21519;-78
2022/03/19 11:21:46;;;;;;;19.80;13.72;;;13.60;99.20;;;;;;1937669;73;21145;-78
2022/03/19 11:24:24;;;;;;;18.95;12.93;;;13.70;98.10;;;;;;1934329;73;21475;-78
2022/03/19 11:26:52;;;;;;;20.75;12.07;;;13.80;96.30;;;;;;1936872;73;21149;-77
2022/03/19 11:29:19;;;;;;;16.87;11.38;;;13.80;95.40;;;;;;1929682;73;21484;-77
2022/03/19 11:32:06;;;;;;;18.32;11.38;;;14.10;93.50;;;;;;1869184;76;21085;-78
2022/03/19 11:34:47;;;;;;;17.48;10.95;;;14.20;92.70;;;;;;1907353;75;21175;-77
2022/03/19 11:37:15;;;;;;;;;;;14.50;92.30;;;;;;1942468;73;21536;-77
2022/03/19 11:40:06;;;;;;;17.07;11.53;;;14.70;92.10;;;;;;1933288;73;20117;-78
2022/03/19 11:42:33;;;;;;;14.55;10.80;;;14.70;92.60;;;;;;1850602;76;21147;-78
2022/03/19 11:45:10;;;;;;;14.50;11.18;;;15.50;91.00;;;;;;1904862;74;21086;-79
2022/03/19 11:47:38;;;;;;;18.20;10.80;;;15.30;90.40;;;;;;1881113;76;21510;-78
2022/03/19 11:50:21;;;;;;;16.25;11.70;;;15.70;90.60;;;;;;1867791;76;21082;-78
2022/03/19 11:52:52;;;;;;;19.98;11.75;;;15.60;89.80;;;;;;1865443;76;21040;-78
2022/03/19 11:55:19;;;;;;;17.15;11.55;;;15.50;90.20;;;;;;1884040;76;21462;-77
2022/03/19 11:57:55;;;;;;;19.15;12.05;;;15.70;90.80;;;;;;1869200;76;21054;-77
2022/03/19 12:00:23;;;;;;;18.05;11.55;;;15.70;90.80;;;;;;1875452;76;21059;-79
2022/03/19 12:03:09;;;;;;;;;;;16.10;90.30;;;;;;1908356;75;21504;-80
2022/03/19 12:05:45;;;;;;;23.35;11.35;;;14.60;90.40;;;;;;1886105;76;20112;-79
2022/03/19 12:08:26;;;;;;;21.33;12.78;;;14.00;92.00;;;;;;1864491;76;21038;-79
2022/03/19 12:11:02;;;;;;;;;;;14.40;93.10;;;;;;1871307;75;21184;-78
2022/03/19 12:13:32;;;;;;;19.35;10.95;;;15.40;92.10;;;;;;1865466;77;20366;-77
2022/03/19 12:16:02;;;;;;;18.35;10.03;;;15.10;92.40;;;;;;1866981;76;21062;-78
2022/03/19 12:18:46;;;;;;;16.48;10.90;;;14.70;92.10;;;;;;1895458;75;21462;-77
2022/03/19 12:21:18;;;;;;;17.90;10.05;;;14.80;90.50;;;;;;1901511;74;21090;-80
2022/03/19 12:24:07;;;;;;;13.93;9.68;;;15.20;89.10;;;;;;1901159;74;21077;-80
2022/03/19 12:26:41;;;;;;;18.60;10.18;;;14.60;88.10;;;;;;1905585;74;21163;-77
2022/03/19 12:29:10;;;;;;;16.75;10.40;;;12.90;89.50;;;;;;1936834;73;21116;-79
2022/03/19 12:31:47;;;;;;;23.27;10.78;;;12.70;90.50;;;;;;1928697;73;21149;-77
2022/03/19 12:34:26;;;;;;;13.00;9.15;;;12.80;91.80;;;;;;1938639;73;21169;-79
2022/03/19 12:36:59;;;;;;;14.80;8.75;;;13.70;91.30;;;;;;1933933;73;21062;-81
2022/03/19 12:39:31;;;;;;;14.07;8.95;;;14.50;88.20;;;;;;1867485;76;21103;-80
2022/03/19 12:42:00;;;;;;;15.50;9.65;;;14.60;85.00;;;;;;1882336;76;21072;-80
2022/03/19 12:44:29;;;;;;;16.05;8.83;;;15.00;84.60;;;;;;1864475;76;21082;-79
2022/03/19 12:47:04;;;;;;;15.23;8.77;;;15.50;82.00;;;;;;1890029;76;21089;-79
2022/03/19 12:49:33;;;;;;;16.48;9.05;;;16.20;79.40;;;;;;1890991;75;21089;-79
2022/03/19 12:52:11;;;;;;;12.30;8.75;;;16.40;78.70;;;;;;1873882;76;21486;-81
2022/03/19 12:54:47;;;;;;;15.53;10.05;;;15.20;78.90;;;;;;1880288;76;21077;-81
2022/03/19 12:57:35;;;;;;;;;;;;;;;;;;;;;
2022/03/19 12:59:53;;;;;;;12.82;8.33;;;13.90;81.10;;;;;;1938888;73;21034;-79
2022/03/19 13:02:22;;;;;;;17.02;9.88;;;13.50;83.80;;;;;;1929586;73;21099;-77
2022/03/19 13:04:49;;;;;;;14.25;9.23;;;13.10;85.10;;;;;;1905001;74;21066;-79